Scandinavian Mountains Airport

ESKS · Södermanland, Schweden

METAR-Geschichte ESKS · Scandinavian Mountains Airport

Unten siehst du die METARs der letzten paar Tage. Wähle ein Jahr, um ältere METARs ab dem Jahr 2007 zu durchsuchen.

16. Juli 2024

Uhrzeit Code Wetter Temp. Sichtweite Wolkendecke Wind METAR/SPECI
17:50
V
18 °C 10 km+ 4.100 ft 120° 120° 7 kt METAR ESKS 161550Z AUTO 12007KT 080V170 9999 SCT031/// BKN041/// OVC065/// 18/11 Q1013
17:20
V
18 °C 10 km+ 6.300 ft 080° 080° 7 kt METAR ESKS 161520Z AUTO 08007KT 050V120 9999 OVC063/// 18/11 Q1013
16:50
V
17 °C 10 km+ 6.000 ft 120° 120° 9 kt METAR ESKS 161450Z AUTO 12009KT 080V150 9999 SCT052/// BKN060/// OVC067/// 17/11 Q1013
16:20
V
17 °C 10 km+ 5.600 ft 130° 130° 10 kt METAR ESKS 161420Z AUTO 13010KT 9999 BKN056/// OVC066/// 17/12 Q1014
15:50
V
17 °C 10 km+ 4.400 ft 150° 150° 12 kt METAR ESKS 161350Z AUTO 15012KT 9999 FEW012/// BKN044/// OVC071/// 17/12 Q1014
15:20
V
18 °C 10 km+ 4.300 ft 140° 140° 7 kt METAR ESKS 161320Z AUTO 14007KT 9999 SCT034/// BKN043/// OVC074/// 18/11 Q1014
14:50
V
18 °C 10 km+ 6.700 ft 140° 140° 5 kt METAR ESKS 161250Z AUTO 14005KT 060V210 9999 SCT034/// SCT056/// OVC067/// 18/10 Q1014
14:20
V
17 °C 10 km+ 4.600 ft 130° 130° 6 kt METAR ESKS 161220Z AUTO 13006KT 100V160 9999 OVC046/// 17/11 Q1014
13:50
V
16 °C 10 km+ 4.600 ft 150° 150° 10 kt METAR ESKS 161150Z AUTO 15010KT 9999 FEW032/// BKN046/// OVC057/// 16/11 Q1014
13:20
V
16 °C 10 km+ 7.000 ft 160° 160° 13 kt METAR ESKS 161120Z AUTO 16013KT 9999 FEW025/// SCT031/// OVC070/// 16/12 Q1014
12:50
V
17 °C 10 km+ 6.400 ft 150° 150° 8 kt METAR ESKS 161050Z AUTO 15008KT 120V190 9999 SCT023/// BKN064/// OVC074/// 17/11 Q1013
12:20
M
17 °C 10 km+ 3.000 ft 130° 130° 8 kt METAR ESKS 161020Z AUTO 13008KT 110V170 9999 SCT023/// BKN030/// OVC062/// 17/11 Q1013
11:50
V
16 °C 10 km+ 5.900 ft 130° 130° 8 kt METAR ESKS 160950Z AUTO 13008KT 100V150 9999 SCT023/// OVC059/// 16/11 Q1013
11:20
V
16 °C 10 km+ 5.400 ft 150° 150° 8 kt METAR ESKS 160920Z AUTO 15008KT 9999 SCT021/// BKN054/// 16/11 Q1013
10:50
M
16 °C 10 km+ 2.400 ft 130° 130° 6 kt METAR ESKS 160850Z AUTO 13006KT 9999 FEW018/// BKN024/// 16/11 Q1013
10:20
M
16 °C 10 km+ 1.700 ft 160° 160° 4 kt METAR ESKS 160820Z AUTO 16004KT 100V200 9999 BKN017/// OVC061/// 16/12 Q1013
09:50
V
15 °C 10 km+ 6.000 ft 140° 140° 6 kt METAR ESKS 160750Z AUTO 14006KT 9999 FEW015/// BKN060/// 15/12 Q1013
09:20
M
15 °C 10 km+ 1.300 ft 110° 110° 5 kt METAR ESKS 160720Z AUTO 11005KT 070V150 9999 FEW009/// BKN013/// BKN061/// 15/12 Q1013
08:50
V
14 °C 10 km+ 4.800 ft 130° 130° 6 kt METAR ESKS 160650Z AUTO 13006KT 9999 FEW010/// OVC048/// 14/11 Q1013
08:20
V
14 °C 10 km+ 4.600 ft 130° 130° 5 kt METAR ESKS 160620Z AUTO 13005KT 9999 FEW007/// OVC046/// 14/12 Q1013
07:50
M
14 °C 10 km+ 1.500 ft 120° 120° 5 kt METAR ESKS 160550Z AUTO 12005KT 9999 FEW007/// BKN015/// OVC047/// 14/11 Q1013
07:20
I
13 °C 10 km+ 600 ft 120° 120° 3 kt METAR ESKS 160520Z AUTO 12003KT 080V160 9999 BKN006/// BKN016/// OVC024/// 13/12 Q1013
06:50
V
13 °C 10 km+ 4.600 ft Var Var 3 kt METAR ESKS 160450Z AUTO VRB03KT 9999 FEW004/// SCT011/// OVC046/// 13/12 Q1012
06:20
V
12 °C 10 km+ 3.800 ft Var Var 3 kt METAR ESKS 160420Z AUTO VRB03KT 9999 FEW007/// OVC038/// 12/11 Q1013
05:50
V
12 °C 10 km+ 3.600 ft 100° 100° 3 kt METAR ESKS 160350Z AUTO 10003KT 9999 FEW014/// BKN036/// OVC045/// 12/11 Q1012
05:20
V
12 °C 10 km+ 4.100 ft 110° 110° 3 kt METAR ESKS 160320Z AUTO 11003KT 9999 FEW024/// OVC041/// 12/11 Q1012
04:50
V
12 °C 10 km+ 4.100 ft Var Var 2 kt METAR ESKS 160250Z AUTO VRB02KT 9999 OVC041/// 12/11 Q1012
04:20
V
12 °C 10 km+ 4.000 ft 100° 100° 4 kt METAR ESKS 160220Z AUTO 10004KT 9999 FEW017/// OVC040/// 12/11 Q1012
03:50
M
12 °C 10 km+ 2.400 ft 120° 120° 4 kt METAR ESKS 160150Z AUTO 12004KT 9999 FEW016/// BKN024/// BKN039/// 12/11 Q1012
03:20
M
12 °C 10 km+ 2.800 ft 090° 090° 4 kt METAR ESKS 160120Z AUTO 09004KT 9999 FEW012/// BKN028/// OVC044/// 12/11 Q1012
02:50
M
12 °C 10 km+ 3.000 ft 090° 090° 4 kt METAR ESKS 160050Z AUTO 09004KT 9999 FEW015/// BKN030/// BKN047/// 12/11 Q1012
02:20
M
12 °C 10 km+ 3.000 ft 080° 080° 4 kt METAR ESKS 160020Z AUTO 08004KT 9999 BKN030/// OVC039/// 12/11 Q1012
01:50
V
12 °C 10 km+ 7.300 ft 140° 140° 4 kt METAR ESKS 152350Z AUTO 14004KT 9999 FEW014/// SCT033/// OVC073/// 12/11 Q1012
01:20
V
12 °C 10 km+ 7.300 ft 110° 110° 4 kt METAR ESKS 152320Z AUTO 11004KT 9999 FEW033/// BKN073/// 12/11 Q1012
00:50
V
13 °C 10 km+ 6.000 ft 090° 090° 4 kt METAR ESKS 152250Z AUTO 09004KT 9999 FEW013/// SCT015/// OVC060/// 13/11 Q1012
00:20
V
13 °C 10 km+ 5.900 ft 110° 110° 4 kt METAR ESKS 152220Z AUTO 11004KT 9999 FEW015/// OVC059/// 13/11 Q1012

15. Juli 2024

Uhrzeit Code Wetter Temp. Sichtweite Wolkendecke Wind METAR/SPECI
23:50
V
13 °C 10 km+ 6.000 ft 110° 110° 5 kt METAR ESKS 152150Z AUTO 11005KT 9999 SCT040/// OVC060/// 13/11 Q1012
23:20
V
13 °C 10 km+ 3.500 ft 100° 100° 4 kt METAR ESKS 152120Z AUTO 10004KT 9999 OVC035/// 13/11 Q1011
22:50
M
13 °C 10 km+ 2.600 ft 100° 100° 4 kt METAR ESKS 152050Z AUTO 10004KT 9999 SCT017/// BKN026/// OVC037/// 13/11 Q1011 REUP
22:20
M
13 °C 10 km+ 2.500 ft 100° 100° 3 kt METAR ESKS 152020Z AUTO 10003KT 090V150 9999 SCT017/// BKN025/// OVC058/// 13/11 Q1011
21:50
V
14 °C 10 km+ 5.600 ft 110° 110° 3 kt METAR ESKS 151950Z AUTO 11003KT 9999 SCT033/// OVC056/// 14/11 Q1011
21:20
V
14 °C 10 km+ 5.600 ft 120° 120° 5 kt METAR ESKS 151920Z AUTO 12005KT 9999 FEW028/// OVC056/// 14/11 Q1011
20:50
V
14 °C 10 km+ 4.500 ft 120° 120° 6 kt METAR ESKS 151850Z AUTO 12006KT 9999 FEW019/// BKN045/// OVC053/// 14/10 Q1011
20:20
V
14 °C 10 km+ 8.200 ft 110° 110° 7 kt METAR ESKS 151820Z AUTO 11007KT 9999 FEW019/// BKN082/// BKN140/// 14/10 Q1011 RERA
19:50
V
14 °C 10 km+ 7.200 ft 150° 150° 6 kt METAR ESKS 151750Z AUTO 15006KT 9999 BKN072/// BKN098/// 14/10 Q1011 RERA
19:20
V
14 °C 10 km+ 7.100 ft 150° 150° 10 kt METAR ESKS 151720Z AUTO 15010KT 9999 -RA FEW020/// OVC071/// 14/10 Q1011
18:50
V
15 °C 10 km+ 5.600 ft 170° 170° 10 kt METAR ESKS 151650Z AUTO 17010KT 9999 FEW020/// BKN056/// BKN065/// 15/11 Q1011
18:20
M
16 °C 10 km+ 2.000 ft 160° 160° 12 kt METAR ESKS 151620Z AUTO 16012KT 9999 BKN020/// BKN061/// 16/11 Q1010 RERA
17:50
V
15 °C 10 km+ 5.200 ft 170° 170° 7 kt METAR ESKS 151550Z AUTO 17007KT 9999 SCT025/// BKN052/// OVC062/// 15/12 Q1010 RERA
17:20
V
16 °C 10 km+ 7.800 ft 160° 160° 9 kt METAR ESKS 151520Z AUTO 16009KT 130V190 9999 FEW024/// SCT029/// BKN078/// 16/11 Q1010 RERA
16:50
V
16 °C 10 km+ 6.900 ft 130° 130° 8 kt METAR ESKS 151450Z AUTO 13008KT 9999 FEW043/// OVC069/// 16/11 Q1010 RERA
16:20
V
17 °C 10 km+ 8.300 ft 170° 170° 10 kt METAR ESKS 151420Z AUTO 17010KT 9999 FEW031/// BKN083/// 17/10 Q1010
15:50
V
16 °C 10 km+ 6.000 ft 150° 150° 10 kt METAR ESKS 151350Z AUTO 15010KT 9999 FEW026/// BKN060/// OVC077/// 16/11 Q1010 RERA
15:20
V
15 °C 10 km+ 3.800 ft 140° 140° 10 kt METAR ESKS 151320Z AUTO 14010KT 100V180 9999 -RA SCT030/// BKN038/// OVC070/// 15/11 Q1010
14:50
V
16 °C 10 km+ 6.000 ft 160° 160° 8 kt METAR ESKS 151250Z AUTO 16008KT 130V190 9999 FEW028/// SCT046/// OVC060/// 16/11 Q1010 RERA
14:20
M
15 °C 10 km+ 3.000 ft 180° 180° 5 kt METAR ESKS 151220Z AUTO 18005KT 9999 +RA BKN030/// OVC058/// 15/12 Q1011 RERA
13:50
V
15 °C 10 km+ 6.200 ft 160° 160° 5 kt METAR ESKS 151150Z AUTO 16005KT 9999 FEW032/// SCT054/// OVC062/// 15/11 Q1010 RESHRA RERA
13:20
V
16 °C 10 km+ 5.800 ft 170° 170° 9 kt METAR ESKS 151120Z AUTO 17009KT 9999 FEW026/// OVC058/// 16/10 Q1010
12:50
V
16 °C 10 km+ 6.200 ft 160° 160° 12 kt METAR ESKS 151050Z AUTO 16012KT 9999 FEW026/// SCT051/// OVC062/// 16/10 Q1011
12:20
M
16 °C 10 km+ 2.900 ft 160° 160° 11 kt METAR ESKS 151020Z AUTO 16011KT 9999 SCT023/// BKN029/// OVC044/// 16/10 Q1011
11:50
M
15 °C 10 km+ 2.200 ft 150° 150° 10 kt METAR ESKS 150950Z AUTO 15010KT 120V190 9999 BKN022/// BKN046/// BKN057/// 15/11 Q1011
11:20
M
15 °C 10 km+ 1.600 ft 160° 160° 11 kt METAR ESKS 150920Z AUTO 16011KT 9999 OVC016/// 15/11 Q1011
10:50
M
14 °C 10 km+ 2.400 ft 160° 160° 10 kt METAR ESKS 150850Z AUTO 16010KT 9999 FEW016/// SCT019/// OVC024/// 14/11 Q1011
10:20
M
14 °C 10 km+ 1.800 ft 170° 170° 10 kt METAR ESKS 150820Z AUTO 17010KT 9999 BKN018/// OVC025/// 14/10 Q1011
09:50
M
14 °C 10 km+ 2.300 ft 160° 160° 10 kt METAR ESKS 150750Z AUTO 16010KT 130V190 9999 FEW018/// BKN023/// BKN027/// 14/10 Q1011
09:20
M
14 °C 10 km+ 1.700 ft 160° 160° 7 kt METAR ESKS 150720Z AUTO 16007KT 9999 BKN017/// BKN021/// 14/10 Q1011
08:50
M
13 °C 10 km+ 1.500 ft 180° 180° 6 kt METAR ESKS 150650Z AUTO 18006KT 9999 SCT010/// BKN015/// 13/10 Q1011
08:20
M
13 °C 10 km+ 1.700 ft 160° 160° 7 kt METAR ESKS 150620Z AUTO 16007KT 140V190 9999 SCT011/// OVC017/// 13/10 Q1011
07:50
M
12 °C 10 km+ 1.900 ft 170° 170° 8 kt METAR ESKS 150550Z AUTO 17008KT 9999 SCT012/// OVC019/// 12/11 Q1011
07:20
M
12 °C 10 km+ 1.800 ft 160° 160° 6 kt METAR ESKS 150520Z AUTO 16006KT 9999 FEW014/// OVC018/// 12/10 Q1011
06:50
M
12 °C 10 km+ 1.800 ft 160° 160° 4 kt METAR ESKS 150450Z AUTO 16004KT 9999 FEW012/// OVC018/// 12/10 Q1011
06:20
M
12 °C 10 km+ 1.300 ft 170° 170° 6 kt METAR ESKS 150420Z AUTO 17006KT 9999 OVC013/// 12/10 Q1010
05:50
M
12 °C 10 km+ 1.300 ft 150° 150° 7 kt METAR ESKS 150350Z AUTO 15007KT 9999 FEW011/// OVC013/// 12/10 Q1010
05:20
M
12 °C 10 km+ 1.500 ft 150° 150° 8 kt METAR ESKS 150320Z AUTO 15008KT 9999 FEW010/// OVC015/// 12/11 Q1010
04:50
M
12 °C 10 km+ 1.400 ft 160° 160° 8 kt METAR ESKS 150250Z AUTO 16008KT 9999 FEW011/// OVC014/// 12/11 Q1010
04:20
M
12 °C 10 km+ 1.600 ft 170° 170° 7 kt METAR ESKS 150220Z AUTO 17007KT 9999 FEW008/// OVC016/// 12/11 Q1009
03:50
M
12 °C 10 km+ 1.300 ft 170° 170° 8 kt METAR ESKS 150150Z AUTO 17008KT 9999 FEW010/// BKN013/// OVC015/// 12/11 Q1009
03:20
M
13 °C 10 km+ 1.500 ft 160° 160° 7 kt METAR ESKS 150120Z AUTO 16007KT 9999 FEW011/// BKN015/// OVC069/// 13/11 Q1009
02:50
M
13 °C 10 km+ 1.100 ft 160° 160° 7 kt METAR ESKS 150050Z AUTO 16007KT 9999 BKN011/// BKN015/// OVC068/// 13/12 Q1009
02:20
M
13 °C 10 km+ 1.000 ft 160° 160° 7 kt METAR ESKS 150020Z AUTO 16007KT 9999 OVC010/// 13/12 Q1009
01:50
M
13 °C 10 km+ 2.300 ft 160° 160° 7 kt METAR ESKS 142350Z AUTO 16007KT 9999 FEW010/// SCT017/// OVC023/// 13/12 Q1009
01:20
M
13 °C 10 km+ 1.900 ft 160° 160° 9 kt METAR ESKS 142320Z AUTO 16009KT 9999 FEW014/// OVC019/// 13/12 Q1008
00:50
M
14 °C 10 km+ 1.000 ft 150° 150° 9 kt METAR ESKS 142250Z AUTO 15009KT 9999 BKN010/// OVC012/// 14/13 Q1009
00:20
I
13 °C 10 km+ 800 ft 170° 170° 4 kt METAR ESKS 142220Z AUTO 17004KT 9999 BKN008/// BKN013/// BKN027/// 13/13 Q1008

14. Juli 2024

Uhrzeit Code Wetter Temp. Sichtweite Wolkendecke Wind METAR/SPECI
23:50
V
14 °C 10 km+ 3.400 ft 150° 150° 5 kt METAR ESKS 142150Z AUTO 15005KT 9999 FEW012/// BKN034/// BKN056/// 14/13 Q1008
23:20
V
14 °C 10 km+ 4.000 ft 160° 160° 5 kt METAR ESKS 142120Z AUTO 16005KT 9999 FEW009/// BKN040/// OVC062/// 14/13 Q1008
22:50
M
14 °C 10 km+ 1.100 ft 160° 160° 5 kt METAR ESKS 142050Z AUTO 16005KT 9999 FEW009/// BKN011/// OVC032/// 14/13 Q1007
22:20
M
14 °C 10 km+ 1.100 ft 130° 130° 5 kt METAR ESKS 142020Z AUTO 13005KT 9999 BKN011/// OVC048/// 14/13 Q1007
21:50
M
14 °C 10 km+ 1.100 ft 140° 140° 5 kt METAR ESKS 141950Z AUTO 14005KT 9999 BKN011/// OVC019/// 14/13 Q1007
21:20
M
14 °C 10 km+ 2.300 ft 180° 180° 7 kt METAR ESKS 141920Z AUTO 18007KT 150V210 9999 FEW006/// SCT010/// OVC023/// 14/13 Q1007
20:50
L
14 °C 4,2 km 300 ft 170° 170° 8 kt METAR ESKS 141850Z AUTO 17008KT 150V200 4200 RA BKN003/// OVC012/// 14/14 Q1007
20:20
I
15 °C 3,3 km 800 ft 150° 150° 8 kt METAR ESKS 141820Z AUTO 15008KT 3300 RA SCT004/// BKN008/// OVC024/// 15/15 Q1006
19:50
I
15 °C 2,2 km 1.100 ft 170° 170° 10 kt METAR ESKS 141750Z AUTO 17010KT 2200 RA FEW005/// SCT008/// OVC011/// 15/15 Q1006
19:20
I
16 °C 3,4 km 1.200 ft 110° 110° 6 kt METAR ESKS 141720Z AUTO 11006KT 3400 DZ OVC012/// 16/15 Q1005
18:50
M
16 °C 10 km+ 1.300 ft 110° 110° 5 kt METAR ESKS 141650Z AUTO 11005KT 9999 SCT009/// BKN013/// OVC018/// 16/15 Q1005
18:20
M
16 °C 10 km+ 1.000 ft 110° 110° 8 kt METAR ESKS 141620Z AUTO 11008KT 9999 OVC010/// 16/15 Q1005
17:50
M
16 °C 10 km+ 1.300 ft 110° 110° 8 kt METAR ESKS 141550Z AUTO 11008KT 9999 BKN013/// OVC055/// 16/15 Q1005 RERA
17:20
M
16 °C 10 km+ 2.200 ft 090° 090° 7 kt METAR ESKS 141520Z AUTO 09007KT 060V120 9999 SCT013/// BKN022/// OVC026/// 16/15 Q1005 RERA
16:50
M
16 °C 10 km+ 1.500 ft 080° 080° 10 kt METAR ESKS 141450Z AUTO 08010KT 060V110 9999 OVC015/// 16/15 Q1005 RERA
16:20
I
16 °C 3,5 km 2.600 ft 070° 070° 8 kt METAR ESKS 141420Z AUTO 07008KT 030V100 3500 -RA FEW010/// OVC026/// 16/15 Q1005
15:50
I
16 °C 3,9 km 1.200 ft 060° 060° 9 kt METAR ESKS 141350Z AUTO 06009KT 3900 RA OVC012/// 16/15 Q1005
15:20
I
16 °C 3,9 km 1.200 ft 060° 060° 9 kt METAR ESKS 141320Z AUTO 06009KT 020V100 3900 -RA BKN012/// OVC026/// 16/15 Q1005
14:50
I
16 °C 3,5 km 1.400 ft 050° 050° 8 kt METAR ESKS 141250Z AUTO 05008KT 3500 DZ FEW010/// OVC014/// 16/15 Q1006
14:20
I
16 °C 3,4 km 1.200 ft 050° 050° 11 kt METAR ESKS 141220Z AUTO 05011KT 3400 -RA BKN012/// BKN024/// OVC030/// 16/15 Q1006
13:50
I
16 °C 3,4 km 2.300 ft 050° 050° 12 kt METAR ESKS 141150Z AUTO 05012KT 3400 -RA FEW010/// BKN023/// OVC041/// 16/14 Q1006
13:20
I
16 °C 4,2 km 4.100 ft 050° 050° 12 - 23 kt METAR ESKS 141120Z AUTO 05012G23KT 4200 -RA FEW009/// BKN041/// OVC049/// 16/14 Q1005
12:50
I
15 °C 3,6 km 1.500 ft 040° 040° 14 kt METAR ESKS 141050Z AUTO 04014KT 360V070 3600 -RA FEW009/// BKN015/// OVC046/// 15/14 Q1005
12:20
M
15 °C 6 km 3.200 ft 030° 030° 14 - 27 kt METAR ESKS 141020Z AUTO 03014G27KT 360V070 6000 -RA SCT008/// BKN032/// OVC045/// 15/14 Q1006
11:50
I
15 °C 7 km 800 ft 030° 030° 14 kt METAR ESKS 140950Z AUTO 03014KT 360V060 7000 -RA OVC008/// 15/13 Q1006 RERA
11:20
M
15 °C 10 km+ 1.000 ft 020° 020° 8 - 18 kt METAR ESKS 140920Z AUTO 02008G18KT 320V070 9999 -RA BKN010/// OVC016/// 15/13 Q1006
10:50
M
14 °C 6 km 1.500 ft 020° 020° 10 - 20 kt METAR ESKS 140850Z AUTO 02010G20KT 330V060 6000 -RA SCT010/// OVC015/// 14/13 Q1007
10:20
V
14 °C 10 km+ 3.300 ft 360° 360° 9 kt METAR ESKS 140820Z AUTO 36009KT 330V030 9999 -RA SCT009/// BKN033/// OVC055/// 14/12 Q1007
09:50
V
13 °C 10 km+ 3.800 ft 010° 010° 10 kt METAR ESKS 140750Z AUTO 01010KT 330V040 9999 RA SCT010/// BKN038/// OVC084/// 13/12 Q1008
09:20
M
13 °C 10 km+ 1.100 ft 360° 360° 10 kt METAR ESKS 140720Z AUTO 36010KT 340V030 9999 -RA BKN011/// BKN018/// OVC064/// 13/12 Q1008
08:50
V
13 °C 10 km+ 6.300 ft 360° 360° 11 kt METAR ESKS 140650Z AUTO 36011KT 9999 -RA FEW012/// SCT016/// OVC063/// 13/12 Q1008
08:20
V
13 °C 10 km+ 8.100 ft 360° 360° 9 kt METAR ESKS 140620Z AUTO 36009KT 340V030 9999 RA FEW032/// SCT068/// OVC081/// 13/12 Q1009
07:50
V
14 °C 10 km+ 5.600 ft 030° 030° 11 kt METAR ESKS 140550Z AUTO 03011KT 360V060 9999 RA BKN056/// OVC098/// 14/11 Q1009
Eine Änderung melden